Marrakech, Morocco
Current Conditions -  °F | °C
As of 5:00 PM on Thursday 27 Nov 2014 (Local Time) from GMMX Reporting Station
Broken Clouds Broken Clouds  
Wind Chill: 59°   Ceiling: 2600
Heat Index: 59°   Visibility: 6mi
Dew Point: 52°   Wind: 18mph
Humidity: 77%   Direction: 280°W
Pressure: 29.71"   Gusts: NA
Location:  31.63°N, 8°W
Report Text: GMMX 271600Z 28016KT 9999 FEW020CB BKN026 15/11 Q1006 NOSIG
Loading
Personal Weather Stations






























Interactive Weather Map New forecast layout! Learn more

10-Day Weather Forecast

Advertisements
Track Severe Weather on mobile